KRID/RID METAR and TAF weather

Enter ICAO airport designator
Station Type Date Time Source
KRID METAR 2020/12/06 01:35 UTC NOAA

KRID 060135Z AUTO 02004KT 10SM OVC021 M01/M02 A3012 RMK AO2


Station Type Date Time Source
KRID Decoded METAR 2020/12/06 01:35 UTC NOAA

Station name not available
Dec 05, 2020 - 08:35 PM EST / 2020.12.06 0135 UTC
Wind: from the NNE (020 degrees) at 5 MPH (4 KT):0
Visibility: 10 mile(s):0
Sky conditions: overcast
Temperature: 30 F (-1 C)
Windchill: 24 F (-4 C):1
Dew Point: 28 F (-2 C)
Relative Humidity: 92%
Pressure (altimeter): 30.12 in. Hg (1019 hPa)
ob: KRID 060135Z AUTO 02004KT 10SM OVC021 M01/M02 A3012 RMK AO2
cycle: 1

Station Type Date Time Source
KRID TAF UTC NOAA

Error!

Example: see airport list